createdAt,value
2023-12-11T00:00:20.141Z,0.000000
2023-12-11T00:05:19.295Z,0.000000
2023-12-11T00:10:19.262Z,0.000000
2023-12-11T00:15:19.096Z,0.000000
2023-12-11T00:20:19.375Z,0.000000
2023-12-11T00:25:19.242Z,0.000000
2023-12-11T00:30:19.493Z,0.000000
2023-12-11T00:35:19.535Z,0.000000
2023-12-11T00:40:19.572Z,0.000000
2023-12-11T00:45:19.179Z,0.000000
2023-12-11T00:50:19.292Z,0.000000
2023-12-11T00:55:19.381Z,0.000000
2023-12-11T01:00:19.551Z,0.000000
2023-12-11T01:05:19.178Z,0.000000
2023-12-11T01:10:19.899Z,0.000000
2023-12-11T01:15:19.480Z,0.000000
2023-12-11T01:20:17.370Z,0.000000
2023-12-11T01:25:17.371Z,0.000000
2023-12-11T01:30:17.351Z,0.000000
2023-12-11T01:35:17.297Z,0.000000
2023-12-11T01:40:17.731Z,0.000000
2023-12-11T01:45:18.183Z,0.000000
2023-12-11T01:50:18.725Z,0.000000
2023-12-11T01:55:17.909Z,0.000000
2023-12-11T02:00:17.389Z,0.000000
2023-12-11T02:05:17.502Z,0.000000
2023-12-11T02:10:17.970Z,0.000000
2023-12-11T02:15:17.383Z,0.000000
2023-12-11T02:20:17.723Z,0.000000
2023-12-11T02:25:17.725Z,0.000000
2023-12-11T02:30:17.617Z,0.000000
2023-12-11T02:35:17.463Z,0.000000
2023-12-11T02:40:17.957Z,0.000000
2023-12-11T02:45:17.617Z,0.000000
2023-12-11T02:50:18.414Z,0.000000
2023-12-11T02:55:17.632Z,0.000000
2023-12-11T03:00:17.467Z,0.000000
2023-12-11T03:05:17.536Z,0.000000
2023-12-11T03:10:18.169Z,0.000000
2023-12-11T03:15:17.477Z,0.000000
2023-12-11T03:20:17.577Z,0.000000
2023-12-11T03:25:18.157Z,0.000000
2023-12-11T03:30:17.709Z,0.000000
2023-12-11T03:35:17.722Z,0.000000
2023-12-11T03:40:17.990Z,0.000000
2023-12-11T03:45:18.204Z,0.000000
2023-12-11T03:50:19.199Z,0.000000
2023-12-11T03:55:17.812Z,0.000000
2023-12-11T04:00:18.231Z,0.000000
2023-12-11T04:05:17.708Z,0.000000
2023-12-11T04:10:17.904Z,0.000000
2023-12-11T04:15:17.704Z,0.000000
2023-12-11T04:20:17.722Z,0.000000
2023-12-11T04:25:18.432Z,0.000000
2023-12-11T04:30:18.673Z,0.000000
2023-12-11T04:35:17.739Z,0.000000
2023-12-11T04:40:17.995Z,0.000000
2023-12-11T04:45:17.889Z,0.000000
2023-12-11T04:50:17.739Z,0.000000
2023-12-11T04:55:17.995Z,0.000000
2023-12-11T05:00:18.952Z,0.000000
2023-12-11T05:05:19.210Z,0.000000
2023-12-11T05:10:19.239Z,0.000000
2023-12-11T05:15:18.840Z,0.000000
2023-12-11T05:20:18.964Z,0.000000
2023-12-11T05:25:19.263Z,0.000000
2023-12-11T05:30:21.243Z,0.000000
2023-12-11T05:35:18.761Z,0.000000
2023-12-11T05:40:23.005Z,0.000000
2023-12-11T05:45:19.299Z,0.000000
2023-12-11T05:50:20.470Z,0.000000
2023-12-11T05:55:19.460Z,0.000000
2023-12-11T06:00:18.991Z,0.000000
2023-12-11T06:05:18.929Z,0.000000
2023-12-11T06:10:19.157Z,0.000000
2023-12-11T06:15:19.174Z,0.000000
2023-12-11T06:20:19.263Z,0.000000
2023-12-11T06:25:19.154Z,0.000000
2023-12-11T06:30:18.905Z,0.000000
2023-12-11T06:35:18.912Z,0.000000
2023-12-11T06:40:19.841Z,0.000000
2023-12-11T06:45:18.947Z,0.000000
2023-12-11T06:50:19.505Z,0.000000
2023-12-11T06:55:19.451Z,0.000000
2023-12-11T07:00:19.102Z,0.000000
2023-12-11T07:05:19.271Z,0.000000
2023-12-11T07:10:19.295Z,0.000000
2023-12-11T07:15:19.123Z,0.000000
2023-12-11T07:20:19.217Z,0.000000
2023-12-11T07:25:19.836Z,0.000000
2023-12-11T07:30:19.393Z,0.000000
2023-12-11T07:35:19.198Z,0.000000
2023-12-11T07:40:19.626Z,0.000000
2023-12-11T07:45:19.334Z,0.000000
2023-12-11T07:50:20.485Z,0.000000
2023-12-11T07:55:19.861Z,0.000000
2023-12-11T08:00:17.903Z,0.000000
2023-12-11T08:05:17.291Z,0.000000
2023-12-11T08:10:17.651Z,0.000000
2023-12-11T08:15:17.310Z,0.000000
2023-12-11T08:20:17.385Z,0.000000
2023-12-11T08:25:17.541Z,0.000000
2023-12-11T08:30:17.599Z,0.000000
2023-12-11T08:35:17.562Z,0.000000
2023-12-11T08:40:20.383Z,0.000000
2023-12-11T08:45:17.396Z,0.000000
2023-12-11T08:50:17.577Z,0.000000
2023-12-11T08:55:17.600Z,0.000000
2023-12-11T09:00:17.875Z,0.000000
2023-12-11T09:05:17.652Z,0.000000
2023-12-11T09:10:18.199Z,0.000000
2023-12-11T09:15:17.404Z,0.000000
2023-12-11T09:20:17.529Z,0.000000
2023-12-11T09:25:17.630Z,0.000000
2023-12-11T09:30:17.412Z,0.000000
2023-12-11T09:35:17.691Z,0.000000
2023-12-11T09:40:17.677Z,0.000000
2023-12-11T09:45:19.286Z,0.000000
2023-12-11T09:50:19.271Z,0.000000
2023-12-11T09:55:17.930Z,0.000000
2023-12-11T10:00:17.796Z,0.000000
2023-12-11T10:05:17.564Z,0.000000
2023-12-11T10:10:17.617Z,0.000000
2023-12-11T10:15:17.702Z,0.000000
2023-12-11T10:20:18.074Z,0.000000
2023-12-11T10:25:18.044Z,0.000000
2023-12-11T10:30:17.614Z,0.000000
2023-12-11T10:35:17.773Z,0.000000
2023-12-11T10:40:17.837Z,0.000000
2023-12-11T10:45:17.690Z,0.000000
2023-12-11T10:50:17.625Z,0.000000
2023-12-11T10:55:18.365Z,0.000000
2023-12-11T11:00:17.929Z,0.000000
2023-12-11T11:05:17.681Z,0.000000
2023-12-11T11:10:17.834Z,0.000000
2023-12-11T11:15:17.674Z,0.000000
2023-12-11T11:20:20.515Z,0.000000
2023-12-11T11:25:21.705Z,0.000000
2023-12-11T11:30:17.887Z,0.000000
2023-12-11T11:35:17.789Z,0.000000
2023-12-11T11:40:18.028Z,0.000000
2023-12-11T11:45:18.527Z,0.000000
2023-12-11T11:50:19.078Z,0.000000
2023-12-11T11:55:18.055Z,0.000000
2023-12-11T12:00:18.396Z,0.000000
2023-12-11T12:05:18.288Z,0.000000
2023-12-11T12:10:18.444Z,0.000000
2023-12-11T12:15:17.924Z,0.000000
2023-12-11T12:20:18.061Z,0.000000
2023-12-11T12:25:18.207Z,0.000000
2023-12-11T12:30:17.957Z,0.000000
2023-12-11T12:35:18.518Z,0.000000
2023-12-11T12:40:18.574Z,0.000000
2023-12-11T12:45:23.489Z,4.000000
2023-12-11T12:50:20.159Z,5.000000
2023-12-11T12:55:18.107Z,5.000000
2023-12-11T13:00:18.096Z,6.000000
2023-12-11T13:05:18.054Z,6.000000
2023-12-11T13:10:18.498Z,7.000000
2023-12-11T13:15:18.013Z,10.000000
2023-12-11T13:20:18.406Z,9.000000
2023-12-11T13:25:18.049Z,6.000000
2023-12-11T13:30:18.176Z,9.000000
2023-12-11T13:35:18.064Z,8.000000
2023-12-11T13:40:18.595Z,8.000000
2023-12-11T13:45:18.550Z,8.000000
2023-12-11T13:50:19.658Z,11.000000
2023-12-11T13:55:18.710Z,12.000000
2023-12-11T14:00:18.294Z,12.000000
2023-12-11T14:05:18.597Z,14.000000
2023-12-11T14:10:18.239Z,14.000000
2023-12-11T14:15:18.120Z,14.000000
2023-12-11T14:20:18.678Z,20.000000
2023-12-11T14:25:18.365Z,26.000000
2023-12-11T14:30:18.422Z,29.000000
2023-12-11T14:35:18.303Z,34.000000
2023-12-11T14:40:18.383Z,37.000000
2023-12-11T14:45:18.772Z,35.000000
2023-12-11T14:50:18.427Z,49.000000
2023-12-11T14:55:25.055Z,59.000000
2023-12-11T15:00:18.369Z,56.000000
2023-12-11T15:05:18.904Z,57.000000
2023-12-11T15:10:19.384Z,54.000000
2023-12-11T15:15:18.397Z,50.000000
2023-12-11T15:20:18.316Z,40.000000
2023-12-11T15:25:19.302Z,32.000000
2023-12-11T15:30:18.631Z,35.000000
2023-12-11T15:35:18.413Z,42.000000
2023-12-11T15:40:18.896Z,47.000000
2023-12-11T15:45:18.342Z,44.000000
2023-12-11T15:50:19.898Z,55.000000
2023-12-11T15:55:18.687Z,58.000000
2023-12-11T16:00:18.480Z,66.000000
2023-12-11T16:05:18.313Z,77.000000
2023-12-11T16:10:18.721Z,95.000000
2023-12-11T16:15:18.434Z,131.000000
2023-12-11T16:20:18.630Z,159.000000
2023-12-11T16:25:19.019Z,169.000000
2023-12-11T16:30:19.010Z,186.000000
2023-12-11T16:35:18.798Z,196.000000
2023-12-11T16:40:18.691Z,295.000000
2023-12-11T16:45:18.528Z,194.000000
2023-12-11T16:50:18.829Z,214.000000
2023-12-11T16:55:18.748Z,194.000000
2023-12-11T17:00:18.752Z,191.000000
2023-12-11T17:05:19.084Z,207.000000
2023-12-11T17:10:18.797Z,204.000000
2023-12-11T17:15:18.625Z,257.000000
2023-12-11T17:20:18.780Z,252.000000
2023-12-11T17:25:18.796Z,213.000000
2023-12-11T17:30:18.597Z,180.000000
2023-12-11T17:35:18.935Z,126.000000
2023-12-11T17:40:19.610Z,127.000000
2023-12-11T17:45:18.976Z,184.000000
2023-12-11T17:50:20.395Z,166.000000
2023-12-11T17:55:18.851Z,141.000000
2023-12-11T18:00:18.814Z,153.000000
2023-12-11T18:05:18.652Z,158.000000
2023-12-11T18:10:19.616Z,110.000000
2023-12-11T18:15:19.400Z,135.000000
2023-12-11T18:20:18.853Z,154.000000
2023-12-11T18:25:18.866Z,169.000000
2023-12-11T18:30:18.937Z,141.000000
2023-12-11T18:35:18.804Z,159.000000
2023-12-11T18:40:19.049Z,129.000000
2023-12-11T18:45:18.733Z,117.000000
2023-12-11T18:50:19.280Z,99.000000
2023-12-11T18:55:19.632Z,127.000000
2023-12-11T19:00:19.178Z,97.000000
2023-12-11T19:05:18.990Z,142.000000
2023-12-11T19:10:19.174Z,91.000000
2023-12-11T19:15:18.849Z,79.000000
2023-12-11T19:20:19.163Z,116.000000
2023-12-11T19:25:19.370Z,131.000000
2023-12-11T19:30:18.898Z,91.000000
2023-12-11T19:35:18.970Z,147.000000
2023-12-11T19:40:19.224Z,159.000000
2023-12-11T19:45:18.958Z,137.000000
2023-12-11T19:50:20.507Z,118.000000
2023-12-11T19:55:19.392Z,103.000000
2023-12-11T20:00:19.496Z,90.000000
2023-12-11T20:05:19.051Z,76.000000
2023-12-11T20:10:19.829Z,65.000000
2023-12-11T20:15:18.987Z,52.000000
2023-12-11T20:20:19.157Z,42.000000
2023-12-11T20:25:19.346Z,27.000000
2023-12-11T20:30:19.260Z,19.000000
2023-12-11T20:35:19.724Z,16.000000
2023-12-11T20:40:19.180Z,12.000000
2023-12-11T20:45:20.098Z,12.000000
2023-12-11T20:50:19.208Z,10.000000
2023-12-11T20:55:19.275Z,9.000000
2023-12-11T21:00:19.389Z,7.000000
2023-12-11T21:05:19.765Z,6.000000
2023-12-11T21:10:19.217Z,5.000000
2023-12-11T21:15:19.322Z,0.000000
2023-12-11T21:20:20.167Z,0.000000
2023-12-11T21:25:19.248Z,0.000000
2023-12-11T21:30:19.195Z,0.000000
2023-12-11T21:35:17.385Z,0.000000
2023-12-11T21:40:17.896Z,0.000000
2023-12-11T21:45:18.330Z,0.000000
2023-12-11T21:50:18.762Z,0.000000
2023-12-11T21:55:17.466Z,0.000000
2023-12-11T22:00:17.402Z,0.000000
2023-12-11T22:05:17.541Z,0.000000
2023-12-11T22:10:17.278Z,0.000000
2023-12-11T22:15:17.777Z,0.000000
2023-12-11T22:20:17.503Z,0.000000
2023-12-11T22:25:17.429Z,0.000000
2023-12-11T22:30:17.614Z,0.000000
2023-12-11T22:35:18.009Z,0.000000
2023-12-11T22:40:17.473Z,0.000000
2023-12-11T22:45:18.022Z,0.000000
2023-12-11T22:50:18.609Z,0.000000
2023-12-11T22:55:19.774Z,0.000000
2023-12-11T23:00:18.013Z,0.000000
2023-12-11T23:05:18.429Z,0.000000
2023-12-11T23:10:18.638Z,0.000000
2023-12-11T23:15:18.102Z,0.000000
2023-12-11T23:20:18.212Z,0.000000
2023-12-11T23:25:20.300Z,0.000000
2023-12-11T23:30:18.036Z,0.000000
2023-12-11T23:35:18.217Z,0.000000
2023-12-11T23:40:18.303Z,0.000000
2023-12-11T23:45:18.288Z,0.000000
2023-12-11T23:50:20.244Z,0.000000
2023-12-11T23:55:18.126Z,0.000000
